sensor_id;sensor_type;location;lat;lon;timestamp;pressure;altitude;pressure_sealevel;temperature;humidity
25759;BME280;13604;52.496;13.456;2023-03-19T00:01:14;100977.81;;;7.64;79.82
25759;BME280;13604;52.496;13.456;2023-03-19T00:03:39;100943.91;;;7.46;80.51
25759;BME280;13604;52.496;13.456;2023-03-19T00:06:05;100976.09;;;7.64;80.45
25759;BME280;13604;52.496;13.456;2023-03-19T00:08:30;100978.31;;;7.58;80.39
25759;BME280;13604;52.496;13.456;2023-03-19T00:10:56;100950.25;;;7.51;79.75
25759;BME280;13604;52.496;13.456;2023-03-19T00:13:21;100969.28;;;7.51;80.12
25759;BME280;13604;52.496;13.456;2023-03-19T00:15:46;100974.38;;;7.50;80.48
25759;BME280;13604;52.496;13.456;2023-03-19T00:18:12;100956.47;;;7.40;80.45
25759;BME280;13604;52.496;13.456;2023-03-19T00:20:38;100970.69;;;7.46;80.19
25759;BME280;13604;52.496;13.456;2023-03-19T00:23:03;100966.75;;;7.38;80.81
25759;BME280;13604;52.496;13.456;2023-03-19T00:25:28;100965.47;;;7.31;82.17
25759;BME280;13604;52.496;13.456;2023-03-19T00:27:53;100970.59;;;7.16;82.28
25759;BME280;13604;52.496;13.456;2023-03-19T00:30:20;100969.31;;;7.10;83.43
25759;BME280;13604;52.496;13.456;2023-03-19T00:32:45;100968.03;;;7.03;83.67
25759;BME280;13604;52.496;13.456;2023-03-19T00:35:10;100960.69;;;6.96;83.54
25759;BME280;13604;52.496;13.456;2023-03-19T00:37:35;100972.63;;;6.94;83.49
25759;BME280;13604;52.496;13.456;2023-03-19T00:40:02;100970.34;;;6.98;83.34
25759;BME280;13604;52.496;13.456;2023-03-19T00:42:29;100965.88;;;6.96;83.05
25759;BME280;13604;52.496;13.456;2023-03-19T00:44:54;100964.56;;;7.03;84.01
25759;BME280;13604;52.496;13.456;2023-03-19T00:47:19;100966.09;;;6.99;84.68
25759;BME280;13604;52.496;13.456;2023-03-19T00:49:45;100928.00;;;6.70;84.43
25759;BME280;13604;52.496;13.456;2023-03-19T00:52:10;100966.38;;;6.90;84.06
25759;BME280;13604;52.496;13.456;2023-03-19T00:54:35;100968.56;;;6.84;84.18
25759;BME280;13604;52.496;13.456;2023-03-19T00:57:01;100974.47;;;6.81;86.29
25759;BME280;13604;52.496;13.456;2023-03-19T00:59:26;100954.63;;;6.82;88.62
25759;BME280;13604;52.496;13.456;2023-03-19T01:01:51;100983.31;;;6.85;84.75
25759;BME280;13604;52.496;13.456;2023-03-19T01:04:17;100959.94;;;6.57;84.28
25759;BME280;13604;52.496;13.456;2023-03-19T01:06:43;100978.06;;;6.57;83.58
25759;BME280;13604;52.496;13.456;2023-03-19T01:09:08;100957.06;;;6.39;83.42
25759;BME280;13604;52.496;13.456;2023-03-19T01:11:35;100992.09;;;6.60;83.04
25759;BME280;13604;52.496;13.456;2023-03-19T01:14:00;100959.13;;;6.44;82.73
25759;BME280;13604;52.496;13.456;2023-03-19T01:16:26;100983.13;;;6.55;82.77
25759;BME280;13604;52.496;13.456;2023-03-19T01:18:52;100989.50;;;6.47;82.72
25759;BME280;13604;52.496;13.456;2023-03-19T01:21:17;100967.19;;;6.36;82.86
25759;BME280;13604;52.496;13.456;2023-03-19T01:23:43;100981.13;;;6.38;83.27
25759;BME280;13604;52.496;13.456;2023-03-19T01:26:08;100979.25;;;6.35;83.04
25759;BME280;13604;52.496;13.456;2023-03-19T01:28:33;100985.81;;;6.43;83.30
25759;BME280;13604;52.496;13.456;2023-03-19T01:31:05;100983.22;;;6.43;82.68
25759;BME280;13604;52.496;13.456;2023-03-19T01:33:31;100989.19;;;6.42;82.93
25759;BME280;13604;52.496;13.456;2023-03-19T01:35:57;100985.63;;;6.40;82.97
25759;BME280;13604;52.496;13.456;2023-03-19T01:38:23;100960.94;;;6.19;83.56
25759;BME280;13604;52.496;13.456;2023-03-19T01:40:49;100956.13;;;6.12;83.79
25759;BME280;13604;52.496;13.456;2023-03-19T01:43:23;100987.22;;;6.38;83.39
25759;BME280;13604;52.496;13.456;2023-03-19T01:45:50;100990.88;;;6.42;83.02
25759;BME280;13604;52.496;13.456;2023-03-19T01:48:27;100975.16;;;6.39;82.45
25759;BME280;13604;52.496;13.456;2023-03-19T01:50:54;100989.50;;;6.34;83.13
25759;BME280;13604;52.496;13.456;2023-03-19T01:53:26;100991.09;;;6.32;82.94
25759;BME280;13604;52.496;13.456;2023-03-19T01:55:57;101003.50;;;6.37;82.43
25759;BME280;13604;52.496;13.456;2023-03-19T01:58:24;100988.28;;;6.29;82.49
25759;BME280;13604;52.496;13.456;2023-03-19T02:00:51;100993.78;;;6.33;82.66
25759;BME280;13604;52.496;13.456;2023-03-19T02:03:16;100992.66;;;6.30;82.41
25759;BME280;13604;52.496;13.456;2023-03-19T02:05:43;100991.19;;;6.33;82.22
25759;BME280;13604;52.496;13.456;2023-03-19T02:08:11;100994.44;;;6.31;82.44
25759;BME280;13604;52.496;13.456;2023-03-19T02:10:39;100984.63;;;6.25;81.96
25759;BME280;13604;52.496;13.456;2023-03-19T02:13:05;100990.16;;;6.31;82.19
25759;BME280;13604;52.496;13.456;2023-03-19T02:15:31;100992.38;;;6.25;82.19
25759;BME280;13604;52.496;13.456;2023-03-19T02:17:57;100978.31;;;6.21;82.35
25759;BME280;13604;52.496;13.456;2023-03-19T02:20:42;100977.50;;;6.09;82.68
25759;BME280;13604;52.496;13.456;2023-03-19T02:23:29;100971.94;;;6.03;82.44
25759;BME280;13604;52.496;13.456;2023-03-19T02:26:03;100982.38;;;6.04;82.38
25759;BME280;13604;52.496;13.456;2023-03-19T02:28:31;100959.50;;;5.97;82.23
25759;BME280;13604;52.496;13.456;2023-03-19T02:30:57;100961.13;;;6.08;82.25
25759;BME280;13604;52.496;13.456;2023-03-19T02:33:22;100967.75;;;6.18;81.59
25759;BME280;13604;52.496;13.456;2023-03-19T02:35:51;100970.19;;;6.15;81.22
25759;BME280;13604;52.496;13.456;2023-03-19T02:38:16;100981.22;;;6.26;81.00
25759;BME280;13604;52.496;13.456;2023-03-19T02:40:50;100981.63;;;6.32;80.88
25759;BME280;13604;52.496;13.456;2023-03-19T02:43:16;100965.28;;;6.20;80.49
25759;BME280;13604;52.496;13.456;2023-03-19T02:45:42;100985.50;;;6.39;80.23
25759;BME280;13604;52.496;13.456;2023-03-19T02:48:07;100965.22;;;6.32;80.36
25759;BME280;13604;52.496;13.456;2023-03-19T02:50:32;100959.63;;;6.39;79.86
25759;BME280;13604;52.496;13.456;2023-03-19T02:52:58;100958.34;;;6.32;79.63
25759;BME280;13604;52.496;13.456;2023-03-19T02:55:23;100960.53;;;6.26;79.33
25759;BME280;13604;52.496;13.456;2023-03-19T02:57:48;100965.91;;;6.29;79.08
25759;BME280;13604;52.496;13.456;2023-03-19T03:00:14;100956.94;;;6.24;79.12
25759;BME280;13604;52.496;13.456;2023-03-19T03:02:41;100973.88;;;6.32;79.13
25759;BME280;13604;52.496;13.456;2023-03-19T03:05:07;100972.38;;;6.36;79.30
25759;BME280;13604;52.496;13.456;2023-03-19T03:07:33;100946.28;;;6.19;79.03
25759;BME280;13604;52.496;13.456;2023-03-19T03:09:58;100957.63;;;6.35;78.71
25759;BME280;13604;52.496;13.456;2023-03-19T03:12:23;100984.31;;;6.47;78.85
25759;BME280;13604;52.496;13.456;2023-03-19T03:14:49;100947.00;;;6.30;79.55
25759;BME280;13604;52.496;13.456;2023-03-19T03:17:15;100977.94;;;6.42;79.50
25759;BME280;13604;52.496;13.456;2023-03-19T03:19:40;100979.94;;;6.46;79.34
25759;BME280;13604;52.496;13.456;2023-03-19T03:22:06;100972.78;;;6.42;79.28
25759;BME280;13604;52.496;13.456;2023-03-19T03:24:32;100980.75;;;6.45;79.54
25759;BME280;13604;52.496;13.456;2023-03-19T03:26:57;100964.59;;;6.36;79.73
25759;BME280;13604;52.496;13.456;2023-03-19T03:29:22;100972.78;;;6.29;80.16
25759;BME280;13604;52.496;13.456;2023-03-19T03:31:47;100961.72;;;6.18;80.17
25759;BME280;13604;52.496;13.456;2023-03-19T03:34:13;100987.19;;;6.25;80.88
25759;BME280;13604;52.496;13.456;2023-03-19T03:36:38;100987.56;;;6.18;81.07
25759;BME280;13604;52.496;13.456;2023-03-19T03:39:04;100986.38;;;6.13;80.74
25759;BME280;13604;52.496;13.456;2023-03-19T03:41:29;100982.59;;;6.07;81.47
25759;BME280;13604;52.496;13.456;2023-03-19T03:43:54;100988.16;;;6.14;81.34
25759;BME280;13604;52.496;13.456;2023-03-19T03:46:20;101010.41;;;6.12;81.46
25759;BME280;13604;52.496;13.456;2023-03-19T03:48:45;100995.91;;;6.00;81.02
25759;BME280;13604;52.496;13.456;2023-03-19T03:51:13;101033.16;;;6.29;80.13
25759;BME280;13604;52.496;13.456;2023-03-19T03:53:38;101009.53;;;6.11;80.98
25759;BME280;13604;52.496;13.456;2023-03-19T03:56:04;101025.69;;;6.20;80.75
25759;BME280;13604;52.496;13.456;2023-03-19T03:58:29;101030.84;;;6.20;80.66
25759;BME280;13604;52.496;13.456;2023-03-19T04:00:55;101017.41;;;6.13;80.96
25759;BME280;13604;52.496;13.456;2023-03-19T04:03:21;101015.31;;;6.07;81.49
25759;BME280;13604;52.496;13.456;2023-03-19T04:05:48;101014.69;;;5.98;81.36
25759;BME280;13604;52.496;13.456;2023-03-19T04:08:13;101034.28;;;6.07;81.43
25759;BME280;13604;52.496;13.456;2023-03-19T04:10:40;101023.44;;;6.00;82.05
25759;BME280;13604;52.496;13.456;2023-03-19T04:13:06;101008.13;;;5.78;82.31
25759;BME280;13604;52.496;13.456;2023-03-19T04:15:31;101032.09;;;6.00;82.50
25759;BME280;13604;52.496;13.456;2023-03-19T04:17:57;101033.75;;;6.00;82.22
25759;BME280;13604;52.496;13.456;2023-03-19T04:20:22;101047.22;;;6.07;81.70
25759;BME280;13604;52.496;13.456;2023-03-19T04:22:48;101036.13;;;5.97;82.35
25759;BME280;13604;52.496;13.456;2023-03-19T04:25:13;101037.34;;;6.02;82.51
25759;BME280;13604;52.496;13.456;2023-03-19T04:27:38;101023.34;;;5.86;81.72
25759;BME280;13604;52.496;13.456;2023-03-19T04:30:04;101041.72;;;6.03;81.44
25759;BME280;13604;52.496;13.456;2023-03-19T04:32:29;101036.28;;;6.12;81.06
25759;BME280;13604;52.496;13.456;2023-03-19T04:34:55;101037.31;;;6.14;80.95
25759;BME280;13604;52.496;13.456;2023-03-19T04:37:22;101047.56;;;6.25;80.71
25759;BME280;13604;52.496;13.456;2023-03-19T04:39:47;101056.31;;;6.28;80.64
25759;BME280;13604;52.496;13.456;2023-03-19T04:42:12;101065.59;;;6.37;79.85
25759;BME280;13604;52.496;13.456;2023-03-19T04:44:38;101064.31;;;6.44;79.38
25759;BME280;13604;52.496;13.456;2023-03-19T04:47:03;101042.72;;;6.30;79.44
25759;BME280;13604;52.496;13.456;2023-03-19T04:49:29;101052.78;;;6.39;79.47
25759;BME280;13604;52.496;13.456;2023-03-19T04:51:55;101049.88;;;6.48;79.14
25759;BME280;13604;52.496;13.456;2023-03-19T04:54:20;101050.72;;;6.60;78.59
25759;BME280;13604;52.496;13.456;2023-03-19T04:56:46;101050.09;;;6.64;78.46
25759;BME280;13604;52.496;13.456;2023-03-19T04:59:11;101045.03;;;6.66;78.85
25759;BME280;13604;52.496;13.456;2023-03-19T05:01:36;101027.31;;;6.58;79.02
25759;BME280;13604;52.496;13.456;2023-03-19T05:04:02;101067.66;;;6.68;78.94
25759;BME280;13604;52.496;13.456;2023-03-19T05:06:27;101055.69;;;6.70;78.33
25759;BME280;13604;52.496;13.456;2023-03-19T05:08:53;101049.22;;;6.77;78.83
25759;BME280;13604;52.496;13.456;2023-03-19T05:11:18;101056.41;;;6.81;79.28
25759;BME280;13604;52.496;13.456;2023-03-19T05:13:43;101061.75;;;6.84;80.26
25759;BME280;13604;52.496;13.456;2023-03-19T05:16:09;101031.50;;;6.70;81.28
25759;BME280;13604;52.496;13.456;2023-03-19T05:18:34;101021.94;;;6.69;81.70
25759;BME280;13604;52.496;13.456;2023-03-19T05:20:59;101045.25;;;6.82;82.29
25759;BME280;13604;52.496;13.456;2023-03-19T05:23:25;101046.22;;;6.84;83.74
25759;BME280;13604;52.496;13.456;2023-03-19T05:25:50;101056.88;;;6.89;84.48
25759;BME280;13604;52.496;13.456;2023-03-19T05:28:16;101021.63;;;6.77;86.02
25759;BME280;13604;52.496;13.456;2023-03-19T05:30:41;101013.78;;;6.76;86.08
25759;BME280;13604;52.496;13.456;2023-03-19T05:33:07;101009.91;;;6.82;87.20
25759;BME280;13604;52.496;13.456;2023-03-19T05:35:33;101016.97;;;6.72;88.44
25759;BME280;13604;52.496;13.456;2023-03-19T05:37:59;101017.97;;;6.74;89.45
25759;BME280;13604;52.496;13.456;2023-03-19T05:40:25;101022.44;;;6.76;90.02
25759;BME280;13604;52.496;13.456;2023-03-19T05:42:50;101020.25;;;6.69;92.05
25759;BME280;13604;52.496;13.456;2023-03-19T05:45:16;101008.59;;;6.62;93.14
25759;BME280;13604;52.496;13.456;2023-03-19T05:47:42;101007.50;;;6.59;94.95
25759;BME280;13604;52.496;13.456;2023-03-19T05:50:09;101004.72;;;6.56;98.73
25759;BME280;13604;52.496;13.456;2023-03-19T05:52:35;101017.28;;;6.63;99.73
25759;BME280;13604;52.496;13.456;2023-03-19T05:55:00;100992.09;;;6.60;100.00
25759;BME280;13604;52.496;13.456;2023-03-19T05:57:26;101005.94;;;6.74;100.00
25759;BME280;13604;52.496;13.456;2023-03-19T05:59:51;100988.19;;;6.40;100.00
25759;BME280;13604;52.496;13.456;2023-03-19T06:02:17;101004.50;;;6.26;100.00
25759;BME280;13604;52.496;13.456;2023-03-19T06:04:42;100991.53;;;6.13;100.00
25759;BME280;13604;52.496;13.456;2023-03-19T06:07:07;101022.69;;;6.28;100.00
25759;BME280;13604;52.496;13.456;2023-03-19T06:09:32;101014.41;;;6.20;100.00
25759;BME280;13604;52.496;13.456;2023-03-19T06:11:58;101022.81;;;6.29;100.00
25759;BME280;13604;52.496;13.456;2023-03-19T06:14:24;101008.84;;;6.14;100.00
25759;BME280;13604;52.496;13.456;2023-03-19T06:16:49;100998.56;;;6.02;100.00
25759;BME280;13604;52.496;13.456;2023-03-19T06:19:14;100995.31;;;6.04;100.00
25759;BME280;13604;52.496;13.456;2023-03-19T06:21:40;101026.28;;;6.30;100.00
25759;BME280;13604;52.496;13.456;2023-03-19T06:24:05;101022.41;;;6.36;100.00
25759;BME280;13604;52.496;13.456;2023-03-19T06:26:31;101038.97;;;6.65;100.00
25759;BME280;13604;52.496;13.456;2023-03-19T06:28:56;101039.38;;;6.85;100.00
25759;BME280;13604;52.496;13.456;2023-03-19T06:31:21;101033.09;;;7.08;100.00
25759;BME280;13604;52.496;13.456;2023-03-19T06:33:47;101012.88;;;7.15;100.00
25759;BME280;13604;52.496;13.456;2023-03-19T06:36:14;101034.88;;;7.22;96.85
25759;BME280;13604;52.496;13.456;2023-03-19T06:38:39;101011.97;;;7.02;96.92
25759;BME280;13604;52.496;13.456;2023-03-19T06:41:04;101058.00;;;7.06;96.39
25759;BME280;13604;52.496;13.456;2023-03-19T06:43:30;101047.63;;;7.19;96.74
25759;BME280;13604;52.496;13.456;2023-03-19T06:45:55;101053.56;;;7.31;95.63
25759;BME280;13604;52.496;13.456;2023-03-19T06:48:21;101037.72;;;7.40;94.23
25759;BME280;13604;52.496;13.456;2023-03-19T06:50:46;101038.91;;;7.45;92.60
25759;BME280;13604;52.496;13.456;2023-03-19T06:53:12;101069.47;;;7.79;91.63
25759;BME280;13604;52.496;13.456;2023-03-19T06:55:38;101081.94;;;7.85;89.91
25759;BME280;13604;52.496;13.456;2023-03-19T06:58:04;101098.38;;;7.85;90.27
25759;BME280;13604;52.496;13.456;2023-03-19T07:00:29;101125.34;;;8.02;89.55
25759;BME280;13604;52.496;13.456;2023-03-19T07:02:54;101133.94;;;8.01;88.88
25759;BME280;13604;52.496;13.456;2023-03-19T07:05:20;101139.94;;;8.00;88.40
25759;BME280;13604;52.496;13.456;2023-03-19T07:07:45;101116.53;;;7.85;88.63
25759;BME280;13604;52.496;13.456;2023-03-19T07:10:10;101143.94;;;7.95;88.26
25759;BME280;13604;52.496;13.456;2023-03-19T07:12:36;101177.13;;;8.01;90.15
25759;BME280;13604;52.496;13.456;2023-03-19T07:15:01;101172.19;;;7.90;89.40
25759;BME280;13604;52.496;13.456;2023-03-19T07:17:28;101180.44;;;7.98;89.74
25759;BME280;13604;52.496;13.456;2023-03-19T07:19:54;101163.81;;;7.95;89.63
25759;BME280;13604;52.496;13.456;2023-03-19T07:22:19;101186.63;;;8.00;88.68
25759;BME280;13604;52.496;13.456;2023-03-19T07:24:45;101182.41;;;8.02;88.78
25759;BME280;13604;52.496;13.456;2023-03-19T07:27:11;101177.94;;;8.00;88.88
25759;BME280;13604;52.496;13.456;2023-03-19T07:29:36;101189.25;;;8.15;89.04
25759;BME280;13604;52.496;13.456;2023-03-19T07:32:02;101176.97;;;8.26;89.12
25759;BME280;13604;52.496;13.456;2023-03-19T07:34:27;101149.75;;;8.47;89.05
25759;BME280;13604;52.496;13.456;2023-03-19T07:36:53;101151.72;;;8.81;88.89
25759;BME280;13604;52.496;13.456;2023-03-19T07:39:19;101146.84;;;9.32;87.59
25759;BME280;13604;52.496;13.456;2023-03-19T07:41:44;101141.50;;;9.92;85.42
25759;BME280;13604;52.496;13.456;2023-03-19T07:44:12;101124.50;;;10.48;82.75
25759;BME280;13604;52.496;13.456;2023-03-19T07:46:37;101114.19;;;10.84;78.71
25759;BME280;13604;52.496;13.456;2023-03-19T07:49:03;101083.66;;;10.47;76.57
25759;BME280;13604;52.496;13.456;2023-03-19T07:51:28;101103.69;;;10.15;77.65
25759;BME280;13604;52.496;13.456;2023-03-19T07:53:53;101093.56;;;10.54;75.74
25759;BME280;13604;52.496;13.456;2023-03-19T07:56:19;101105.56;;;10.34;77.57
25759;BME280;13604;52.496;13.456;2023-03-19T07:58:44;101097.00;;;11.23;76.07
25759;BME280;13604;52.496;13.456;2023-03-19T08:01:10;101092.19;;;11.15;72.74
25759;BME280;13604;52.496;13.456;2023-03-19T08:03:35;101091.75;;;11.61;72.08
25759;BME280;13604;52.496;13.456;2023-03-19T08:06:00;101096.94;;;12.57;68.37
25759;BME280;13604;52.496;13.456;2023-03-19T08:08:26;101104.41;;;13.11;64.41
25759;BME280;13604;52.496;13.456;2023-03-19T08:10:55;101113.63;;;13.68;63.06
25759;BME280;13604;52.496;13.456;2023-03-19T08:13:20;101114.41;;;14.12;63.29
25759;BME280;13604;52.496;13.456;2023-03-19T08:15:45;101102.81;;;14.79;63.56
25759;BME280;13604;52.496;13.456;2023-03-19T08:18:10;101120.13;;;15.01;58.91
25759;BME280;13604;52.496;13.456;2023-03-19T08:20:36;101110.75;;;15.08;59.30
25759;BME280;13604;52.496;13.456;2023-03-19T08:23:02;101112.75;;;13.91;61.65
25759;BME280;13604;52.496;13.456;2023-03-19T08:25:27;101118.75;;;13.65;63.79
25759;BME280;13604;52.496;13.456;2023-03-19T08:27:56;101115.06;;;13.59;64.47
25759;BME280;13604;52.496;13.456;2023-03-19T08:30:22;101113.41;;;13.39;64.41
25759;BME280;13604;52.496;13.456;2023-03-19T08:32:47;101119.78;;;13.03;65.93
25759;BME280;13604;52.496;13.456;2023-03-19T08:35:13;101142.69;;;12.08;69.16
25759;BME280;13604;52.496;13.456;2023-03-19T08:37:38;101184.28;;;11.68;71.17
25759;BME280;13604;52.496;13.456;2023-03-19T08:40:04;101198.13;;;11.13;73.79
25759;BME280;13604;52.496;13.456;2023-03-19T08:42:30;101208.09;;;10.87;77.15
25759;BME280;13604;52.496;13.456;2023-03-19T08:44:55;101154.19;;;10.02;81.52
25759;BME280;13604;52.496;13.456;2023-03-19T08:47:20;101212.72;;;9.63;88.53
25759;BME280;13604;52.496;13.456;2023-03-19T08:49:49;101217.13;;;9.19;93.93
25759;BME280;13604;52.496;13.456;2023-03-19T08:52:16;101229.34;;;9.05;96.82
25759;BME280;13604;52.496;13.456;2023-03-19T08:54:41;101234.78;;;8.80;100.00
25759;BME280;13604;52.496;13.456;2023-03-19T08:57:07;101219.84;;;8.47;100.00
25759;BME280;13604;52.496;13.456;2023-03-19T08:59:32;101210.41;;;8.21;100.00
25759;BME280;13604;52.496;13.456;2023-03-19T09:01:57;101215.88;;;8.26;100.00
25759;BME280;13604;52.496;13.456;2023-03-19T09:04:23;101208.06;;;8.11;100.00
25759;BME280;13604;52.496;13.456;2023-03-19T09:06:48;101199.59;;;8.00;100.00
25759;BME280;13604;52.496;13.456;2023-03-19T09:09:21;101167.91;;;7.78;100.00
25759;BME280;13604;52.496;13.456;2023-03-19T09:11:47;101169.81;;;7.80;100.00
25759;BME280;13604;52.496;13.456;2023-03-19T09:14:13;101146.03;;;7.87;100.00
25759;BME280;13604;52.496;13.456;2023-03-19T09:16:40;101143.84;;;7.93;100.00
25759;BME280;13604;52.496;13.456;2023-03-19T09:19:06;101123.97;;;7.94;100.00
25759;BME280;13604;52.496;13.456;2023-03-19T09:21:31;101120.34;;;8.05;100.00
25759;BME280;13604;52.496;13.456;2023-03-19T09:23:56;101127.09;;;8.17;100.00
25759;BME280;13604;52.496;13.456;2023-03-19T09:26:22;101115.38;;;8.23;100.00
25759;BME280;13604;52.496;13.456;2023-03-19T09:28:47;101115.69;;;8.28;100.00
25759;BME280;13604;52.496;13.456;2023-03-19T09:31:12;101092.59;;;8.33;100.00
25759;BME280;13604;52.496;13.456;2023-03-19T09:33:37;101078.19;;;8.23;100.00
25759;BME280;13604;52.496;13.456;2023-03-19T09:36:03;101100.63;;;8.51;100.00
25759;BME280;13604;52.496;13.456;2023-03-19T09:38:28;101105.72;;;8.49;100.00
25759;BME280;13604;52.496;13.456;2023-03-19T09:43:56;101114.75;;;8.86;100.00
25759;BME280;13604;52.496;13.456;2023-03-19T09:46:44;101115.09;;;9.07;100.00
25759;BME280;13604;52.496;13.456;2023-03-19T09:49:28;101119.88;;;9.30;100.00
25759;BME280;13604;52.496;13.456;2023-03-19T09:51:57;101089.81;;;9.19;100.00
25759;BME280;13604;52.496;13.456;2023-03-19T09:54:27;101114.91;;;9.50;100.00
25759;BME280;13604;52.496;13.456;2023-03-19T09:56:54;101113.81;;;9.61;100.00
25759;BME280;13604;52.496;13.456;2023-03-19T09:59:22;101053.38;;;9.34;100.00
25759;BME280;13604;52.496;13.456;2023-03-19T10:01:56;101109.97;;;9.54;100.00
25759;BME280;13604;52.496;13.456;2023-03-19T10:04:38;101103.41;;;9.61;100.00
25759;BME280;13604;52.496;13.456;2023-03-19T10:10:12;101108.72;;;10.12;100.00
25759;BME280;13604;52.496;13.456;2023-03-19T10:13:12;101111.00;;;10.39;100.00
25759;BME280;13604;52.496;13.456;2023-03-19T10:15:39;101114.66;;;10.42;100.00
25759;BME280;13604;52.496;13.456;2023-03-19T10:18:16;101103.34;;;10.42;100.00
25759;BME280;13604;52.496;13.456;2023-03-19T10:25:44;101117.94;;;10.38;100.00
25759;BME280;13604;52.496;13.456;2023-03-19T10:28:14;101123.44;;;10.61;100.00
25759;BME280;13604;52.496;13.456;2023-03-19T10:30:41;101113.53;;;10.37;100.00
25759;BME280;13604;52.496;13.456;2023-03-19T10:33:24;101126.34;;;10.18;100.00
25759;BME280;13604;52.496;13.456;2023-03-19T10:35:59;101130.75;;;10.19;100.00
25759;BME280;13604;52.496;13.456;2023-03-19T10:38:27;101125.38;;;10.16;100.00
25759;BME280;13604;52.496;13.456;2023-03-19T10:41:18;101118.97;;;10.42;100.00
25759;BME280;13604;52.496;13.456;2023-03-19T10:43:50;101117.75;;;10.52;100.00
25759;BME280;13604;52.496;13.456;2023-03-19T10:46:16;101125.63;;;10.88;100.00
25759;BME280;13604;52.496;13.456;2023-03-19T10:48:44;101123.63;;;11.36;100.00
25759;BME280;13604;52.496;13.456;2023-03-19T10:51:13;101111.13;;;12.04;100.00
25759;BME280;13604;52.496;13.456;2023-03-19T10:53:39;101115.97;;;12.14;99.32
25759;BME280;13604;52.496;13.456;2023-03-19T10:56:18;101092.09;;;12.45;95.61
25759;BME280;13604;52.496;13.456;2023-03-19T10:59:02;101094.03;;;12.30;94.93
25759;BME280;13604;52.496;13.456;2023-03-19T11:01:46;101096.59;;;13.34;92.55
25759;BME280;13604;52.496;13.456;2023-03-19T11:04:16;101112.31;;;13.13;89.30
25759;BME280;13604;52.496;13.456;2023-03-19T11:06:47;101100.78;;;13.74;86.37
25759;BME280;13604;52.496;13.456;2023-03-19T11:09:18;101113.56;;;13.66;84.41
25759;BME280;13604;52.496;13.456;2023-03-19T11:11:48;101100.72;;;13.50;86.87
25759;BME280;13604;52.496;13.456;2023-03-19T11:14:29;101117.38;;;14.21;86.29
25759;BME280;13604;52.496;13.456;2023-03-19T11:17:02;101119.41;;;15.33;82.12
25759;BME280;13604;52.496;13.456;2023-03-19T11:19:31;101093.53;;;16.34;75.56
25759;BME280;13604;52.496;13.456;2023-03-19T11:22:06;101105.41;;;17.99;68.39
25759;BME280;13604;52.496;13.456;2023-03-19T11:24:37;101120.19;;;18.37;62.18
25759;BME280;13604;52.496;13.456;2023-03-19T11:27:04;101106.16;;;18.85;61.54
25759;BME280;13604;52.496;13.456;2023-03-19T11:29:30;101094.84;;;20.19;56.05
25759;BME280;13604;52.496;13.456;2023-03-19T11:34:44;101107.63;;;21.69;48.13
25759;BME280;13604;52.496;13.456;2023-03-19T11:37:21;101106.34;;;20.21;50.57
25759;BME280;13604;52.496;13.456;2023-03-19T11:40:07;101093.19;;;18.99;54.95
25759;BME280;13604;52.496;13.456;2023-03-19T11:42:58;101103.75;;;18.50;56.17
25759;BME280;13604;52.496;13.456;2023-03-19T11:45:35;101105.34;;;17.96;59.08
25759;BME280;13604;52.496;13.456;2023-03-19T11:48:26;101095.41;;;17.43;60.65
25759;BME280;13604;52.496;13.456;2023-03-19T11:51:16;101103.59;;;17.57;59.83
25759;BME280;13604;52.496;13.456;2023-03-19T11:53:52;101093.03;;;16.83;62.25
25759;BME280;13604;52.496;13.456;2023-03-19T11:56:30;101108.88;;;15.89;64.47
25759;BME280;13604;52.496;13.456;2023-03-19T11:59:15;101072.28;;;15.95;65.35
25759;BME280;13604;52.496;13.456;2023-03-19T12:04:36;101082.34;;;15.22;66.92
25759;BME280;13604;52.496;13.456;2023-03-19T12:10:27;101088.66;;;15.57;67.48
25759;BME280;13604;52.496;13.456;2023-03-19T12:13:06;101097.91;;;15.44;67.02
25759;BME280;13604;52.496;13.456;2023-03-19T12:21:33;101084.84;;;14.64;71.28
25759;BME280;13604;52.496;13.456;2023-03-19T12:24:23;101080.59;;;14.44;72.22
25759;BME280;13604;52.496;13.456;2023-03-19T12:29:57;101087.91;;;14.52;72.86
25759;BME280;13604;52.496;13.456;2023-03-19T12:33:09;101092.47;;;14.84;71.80
25759;BME280;13604;52.496;13.456;2023-03-19T12:35:38;101076.47;;;15.31;71.00
25759;BME280;13604;52.496;13.456;2023-03-19T12:38:36;101079.88;;;15.84;69.20
25759;BME280;13604;52.496;13.456;2023-03-19T12:41:06;101065.53;;;16.35;67.29
25759;BME280;13604;52.496;13.456;2023-03-19T12:43:43;101059.81;;;16.85;65.91
25759;BME280;13604;52.496;13.456;2023-03-19T12:46:17;101070.75;;;17.82;62.03
25759;BME280;13604;52.496;13.456;2023-03-19T12:48:49;101068.00;;;18.19;61.24
25759;BME280;13604;52.496;13.456;2023-03-19T12:51:18;101074.06;;;18.62;60.02
25759;BME280;13604;52.496;13.456;2023-03-19T12:54:05;101075.84;;;19.15;58.80
25759;BME280;13604;52.496;13.456;2023-03-19T12:56:40;101071.19;;;19.60;56.92
25759;BME280;13604;52.496;13.456;2023-03-19T12:59:39;101072.19;;;20.41;55.99
25759;BME280;13604;52.496;13.456;2023-03-19T13:02:15;101070.34;;;21.43;53.40
25759;BME280;13604;52.496;13.456;2023-03-19T13:07:56;101072.56;;;23.12;48.48
25759;BME280;13604;52.496;13.456;2023-03-19T13:10:24;101067.22;;;23.28;47.17
25759;BME280;13604;52.496;13.456;2023-03-19T13:12:50;101067.19;;;23.45;45.96
25759;BME280;13604;52.496;13.456;2023-03-19T13:21:08;101080.44;;;23.59;44.84
25759;BME280;13604;52.496;13.456;2023-03-19T13:23:40;101060.91;;;23.61;44.58
25759;BME280;13604;52.496;13.456;2023-03-19T13:26:09;101073.34;;;23.58;44.83
25759;BME280;13604;52.496;13.456;2023-03-19T13:28:37;101077.00;;;23.13;45.89